createdAt,value
2022-12-11T00:02:08.328Z,25.13
2022-12-11T00:04:38.129Z,25.57
2022-12-11T00:07:06.995Z,24.63
2022-12-11T00:09:35.947Z,25.80
2022-12-11T00:12:05.311Z,26.00
2022-12-11T00:14:34.035Z,27.00
2022-12-11T00:17:02.884Z,26.63
2022-12-11T00:19:33.243Z,28.63
2022-12-11T00:22:02.187Z,30.03
2022-12-11T00:24:31.150Z,28.27
2022-12-11T00:27:00.075Z,24.83
2022-12-11T00:29:29.041Z,26.87
2022-12-11T00:31:58.022Z,24.80
2022-12-11T00:34:27.212Z,27.10
2022-12-11T00:36:59.102Z,25.97
2022-12-11T00:39:27.874Z,24.27
2022-12-11T00:41:56.689Z,27.83
2022-12-11T00:44:25.584Z,24.10
2022-12-11T00:46:54.488Z,26.83
2022-12-11T00:49:23.311Z,23.90
2022-12-11T00:51:52.164Z,24.60
2022-12-11T00:54:23.513Z,25.67
2022-12-11T00:56:52.169Z,25.10
2022-12-11T00:59:22.309Z,25.30
2022-12-11T01:01:51.218Z,25.67
2022-12-11T01:04:20.010Z,21.27
2022-12-11T01:06:48.761Z,22.77
2022-12-11T01:09:34.779Z,22.63
2022-12-11T01:12:05.311Z,25.97
2022-12-11T01:14:33.982Z,24.03
2022-12-11T01:17:02.893Z,22.40
2022-12-11T01:19:31.613Z,24.40
2022-12-11T01:22:00.555Z,21.67
2022-12-11T01:24:29.514Z,22.97
2022-12-11T01:26:58.215Z,18.33
2022-12-11T01:29:28.586Z,20.33
2022-12-11T01:31:57.463Z,20.60
2022-12-11T01:34:26.340Z,21.00
2022-12-11T01:36:55.241Z,20.63
2022-12-11T01:39:24.197Z,23.47
2022-12-11T01:41:57.581Z,20.70
2022-12-11T01:45:20.502Z,21.60
2022-12-11T01:47:50.060Z,23.70
2022-12-11T01:50:19.356Z,21.90
2022-12-11T01:52:49.503Z,20.70
2022-12-11T01:55:18.918Z,23.93
2022-12-11T01:57:50.949Z,22.10
2022-12-11T02:00:23.325Z,20.40
2022-12-11T02:02:52.291Z,20.93
2022-12-11T02:05:21.357Z,19.67
2022-12-11T02:07:55.636Z,20.57
2022-12-11T02:10:30.376Z,19.63
2022-12-11T02:13:03.815Z,17.30
2022-12-11T02:15:38.618Z,18.63
2022-12-11T02:18:16.175Z,19.57
2022-12-11T02:20:53.901Z,20.20
2022-12-11T02:23:53.538Z,16.63
2022-12-11T02:26:35.330Z,19.20
2022-12-11T02:29:09.033Z,19.07
2022-12-11T02:31:42.951Z,21.40
2022-12-11T02:34:15.511Z,21.27
2022-12-11T02:36:48.554Z,21.10
2022-12-11T02:39:18.972Z,20.23
2022-12-11T02:41:51.583Z,18.80
2022-12-11T02:44:26.172Z,20.13
2022-12-11T02:46:56.510Z,21.10
2022-12-11T02:49:26.914Z,20.67
2022-12-11T02:51:58.061Z,20.20
2022-12-11T02:54:30.377Z,19.43
2022-12-11T02:57:04.885Z,20.10
2022-12-11T02:59:37.763Z,18.77
2022-12-11T03:02:07.787Z,21.33
2022-12-11T03:04:37.577Z,20.50
2022-12-11T03:07:13.387Z,18.00
2022-12-11T03:09:43.610Z,20.73
2022-12-11T03:12:16.777Z,19.13
2022-12-11T03:14:48.118Z,19.83
2022-12-11T03:17:20.368Z,14.93
2022-12-11T03:19:56.059Z,15.43
2022-12-11T03:22:33.810Z,17.57
2022-12-11T03:25:06.203Z,19.53
2022-12-11T03:27:39.343Z,16.83
2022-12-11T03:30:13.642Z,19.67
2022-12-11T03:32:47.254Z,18.50
2022-12-11T03:35:20.790Z,18.17
2022-12-11T03:37:50.781Z,16.63
2022-12-11T03:40:22.253Z,16.07
2022-12-11T03:42:53.927Z,16.87
2022-12-11T03:45:26.198Z,16.63
2022-12-11T03:47:56.714Z,19.90
2022-12-11T03:50:27.950Z,20.50
2022-12-11T03:52:57.249Z,18.57
2022-12-11T03:55:27.559Z,19.57
2022-12-11T03:57:56.485Z,20.60
2022-12-11T04:00:26.806Z,15.97
2022-12-11T04:03:14.139Z,17.10
2022-12-11T04:05:45.616Z,15.27
2022-12-11T04:08:14.961Z,15.63
2022-12-11T04:11:07.585Z,17.37
2022-12-11T04:13:36.560Z,17.37
2022-12-11T04:16:06.131Z,17.27
2022-12-11T04:18:52.459Z,18.37
2022-12-11T04:21:39.782Z,18.80
2022-12-11T04:24:17.866Z,21.73
2022-12-11T04:26:48.376Z,19.33
2022-12-11T04:29:16.923Z,19.47
2022-12-11T04:31:48.268Z,16.10
2022-12-11T04:34:17.020Z,17.03
2022-12-11T04:36:46.010Z,17.97
2022-12-11T04:39:14.858Z,18.13
2022-12-11T04:41:44.148Z,14.20
2022-12-11T04:44:13.119Z,15.00
2022-12-11T04:46:42.061Z,14.27
2022-12-11T04:49:12.692Z,14.03
2022-12-11T04:51:41.910Z,13.57
2022-12-11T04:54:10.684Z,13.23
2022-12-11T04:56:39.477Z,11.27
2022-12-11T04:59:08.239Z,14.50
2022-12-11T05:01:36.942Z,14.97
2022-12-11T05:04:05.954Z,11.47
2022-12-11T05:06:36.555Z,12.50
2022-12-11T05:09:05.588Z,12.93
2022-12-11T05:11:34.462Z,14.07
2022-12-11T05:14:03.322Z,12.97
2022-12-11T05:16:32.188Z,12.63
2022-12-11T05:19:01.293Z,11.03
2022-12-11T05:21:35.004Z,13.00
2022-12-11T05:24:06.325Z,14.97
2022-12-11T05:26:35.202Z,11.83
2022-12-11T05:29:04.080Z,12.43
2022-12-11T05:31:32.844Z,11.13
2022-12-11T05:34:01.809Z,11.23
2022-12-11T05:36:33.113Z,9.57
2022-12-11T05:39:02.559Z,11.23
2022-12-11T05:41:33.890Z,12.83
2022-12-11T05:44:03.586Z,14.13
2022-12-11T05:46:32.875Z,15.33
2022-12-11T05:49:03.489Z,14.17
2022-12-11T05:51:35.181Z,11.93
2022-12-11T05:54:04.998Z,12.63
2022-12-11T05:56:36.925Z,14.70
2022-12-11T05:59:07.399Z,16.07
2022-12-11T06:01:37.975Z,14.00
2022-12-11T06:04:08.020Z,13.63
2022-12-11T06:06:37.269Z,12.03
2022-12-11T06:09:07.589Z,14.10
2022-12-11T06:11:37.849Z,14.83
2022-12-11T06:14:06.439Z,13.73
2022-12-11T06:16:35.451Z,13.80
2022-12-11T06:19:05.233Z,14.73
2022-12-11T06:21:34.784Z,12.93
2022-12-11T06:24:05.737Z,12.87
2022-12-11T06:26:34.667Z,13.67
2022-12-11T06:29:09.022Z,15.37
2022-12-11T06:31:41.317Z,16.37
2022-12-11T06:34:10.550Z,13.77
2022-12-11T06:36:39.418Z,11.73
2022-12-11T06:39:08.774Z,13.40
2022-12-11T06:41:37.701Z,14.70
2022-12-11T06:44:07.953Z,15.23
2022-12-11T06:46:36.584Z,14.47
2022-12-11T06:49:05.561Z,15.80
2022-12-11T06:51:34.357Z,12.90
2022-12-11T06:54:02.901Z,11.73
2022-12-11T06:56:31.649Z,14.50
2022-12-11T06:59:06.990Z,16.27
2022-12-11T07:01:38.075Z,14.93
2022-12-11T07:04:06.772Z,14.23
2022-12-11T07:06:35.424Z,14.13
2022-12-11T07:09:05.422Z,13.20
2022-12-11T07:11:34.481Z,17.23
2022-12-11T07:14:04.183Z,13.33
2022-12-11T07:16:34.175Z,14.57
2022-12-11T07:19:04.855Z,15.07
2022-12-11T07:21:33.643Z,16.43
2022-12-11T07:24:02.727Z,16.13
2022-12-11T07:26:31.659Z,15.83
2022-12-11T07:29:01.397Z,21.67
2022-12-11T07:31:31.865Z,24.13
2022-12-11T07:34:05.786Z,20.00
2022-12-11T07:36:35.787Z,19.73
2022-12-11T07:39:05.065Z,19.67
2022-12-11T07:41:34.090Z,23.47
2022-12-11T07:44:04.124Z,21.27
2022-12-11T07:46:34.842Z,20.23
2022-12-11T07:49:06.925Z,20.00
2022-12-11T07:51:38.158Z,21.47
2022-12-11T07:54:10.760Z,20.77
2022-12-11T07:56:43.684Z,20.53
2022-12-11T07:59:14.305Z,18.43
2022-12-11T08:01:43.449Z,20.20
2022-12-11T08:04:15.916Z,18.77
2022-12-11T08:06:45.303Z,16.20
2022-12-11T08:09:20.974Z,16.87
2022-12-11T08:11:51.732Z,16.23
2022-12-11T08:14:21.549Z,17.50
2022-12-11T08:16:50.736Z,16.97
2022-12-11T08:19:21.177Z,17.97
2022-12-11T08:21:49.850Z,16.77
2022-12-11T08:24:20.814Z,18.40
2022-12-11T08:26:50.125Z,19.03
2022-12-11T08:29:18.747Z,20.63
2022-12-11T08:31:47.629Z,18.37
2022-12-11T08:34:16.450Z,20.00
2022-12-11T08:36:46.943Z,20.30
2022-12-11T08:39:17.204Z,21.50
2022-12-11T08:41:46.230Z,22.80
2022-12-11T08:44:18.313Z,22.17
2022-12-11T08:46:48.169Z,22.73
2022-12-11T08:49:17.618Z,22.53
2022-12-11T08:51:48.396Z,26.13
2022-12-11T08:54:17.274Z,24.93
2022-12-11T08:56:49.209Z,23.13
2022-12-11T08:59:20.176Z,23.03
2022-12-11T09:01:49.151Z,21.20
2022-12-11T09:04:17.801Z,24.27
2022-12-11T09:06:48.569Z,20.30
2022-12-11T09:09:17.197Z,21.63
2022-12-11T09:11:45.941Z,23.43
2022-12-11T09:14:16.127Z,24.23
2022-12-11T09:16:47.852Z,20.67
2022-12-11T09:19:17.907Z,21.40
2022-12-11T09:21:48.448Z,23.30
2022-12-11T09:24:17.564Z,21.30
2022-12-11T09:26:47.355Z,21.17
2022-12-11T09:29:16.046Z,23.87
2022-12-11T09:31:46.482Z,25.57
2022-12-11T09:34:15.983Z,25.07
2022-12-11T09:36:45.530Z,24.40
2022-12-11T09:39:17.996Z,24.73
2022-12-11T09:41:54.710Z,21.03
2022-12-11T09:44:33.847Z,20.90
2022-12-11T09:47:02.694Z,23.93
2022-12-11T09:49:38.575Z,21.10
2022-12-11T09:52:14.690Z,23.30
2022-12-11T09:54:50.806Z,19.53
2022-12-11T09:57:40.943Z,25.17
2022-12-11T10:00:18.776Z,21.17
2022-12-11T10:03:34.008Z,20.13
2022-12-11T10:06:08.833Z,18.03
2022-12-11T10:08:44.991Z,17.63
2022-12-11T10:11:40.109Z,18.30
2022-12-11T10:14:19.308Z,16.30
2022-12-11T10:16:52.974Z,18.13
2022-12-11T10:19:26.226Z,20.07
2022-12-11T10:21:56.143Z,35.53
2022-12-11T10:25:07.704Z,19.67
2022-12-11T10:27:24.026Z,23.00
2022-12-11T10:30:02.183Z,18.40
2022-12-11T10:32:40.025Z,26.27
2022-12-11T10:35:17.514Z,15.87
2022-12-11T10:37:46.593Z,18.83
2022-12-11T10:40:16.167Z,16.87
2022-12-11T10:42:55.755Z,15.33
2022-12-11T10:45:24.495Z,16.40
2022-12-11T10:48:04.209Z,17.57
2022-12-11T10:50:33.998Z,24.23
2022-12-11T10:53:02.979Z,18.07
2022-12-11T10:55:40.935Z,28.27
2022-12-11T10:58:20.086Z,26.53
2022-12-11T11:01:01.340Z,21.60
2022-12-11T11:03:30.638Z,31.07
2022-12-11T11:06:17.297Z,18.83
2022-12-11T11:08:47.815Z,20.67
2022-12-11T11:11:24.867Z,25.77
2022-12-11T11:14:07.187Z,20.13
2022-12-11T11:16:39.187Z,28.13
2022-12-11T11:19:08.694Z,18.63
2022-12-11T11:21:37.539Z,21.73
2022-12-11T11:24:06.530Z,19.53
2022-12-11T11:27:11.251Z,19.27
2022-12-11T11:29:32.249Z,29.30
2022-12-11T11:32:15.609Z,23.90
2022-12-11T11:34:44.519Z,21.77
2022-12-11T11:37:32.103Z,26.53
2022-12-11T11:40:08.189Z,30.07
2022-12-11T11:42:46.622Z,31.20
2022-12-11T11:45:22.274Z,19.87
2022-12-11T11:48:03.114Z,19.67
2022-12-11T11:50:37.351Z,20.50
2022-12-11T11:53:11.843Z,22.30
2022-12-11T11:55:48.578Z,17.27
2022-12-11T11:58:22.960Z,21.40
2022-12-11T12:00:55.371Z,19.37
2022-12-11T12:03:26.535Z,24.27
2022-12-11T12:06:00.731Z,22.37
2022-12-11T12:08:41.291Z,24.73
2022-12-11T12:11:22.977Z,23.37
2022-12-11T12:14:00.459Z,22.60
2022-12-11T12:16:55.615Z,23.07
2022-12-11T12:19:39.549Z,20.03
2022-12-11T12:22:19.701Z,20.10
2022-12-11T12:25:00.471Z,22.07
2022-12-11T12:27:54.770Z,22.73
2022-12-11T12:30:24.202Z,18.33
2022-12-11T12:33:07.549Z,21.27
2022-12-11T12:35:38.236Z,21.57
2022-12-11T12:38:19.199Z,23.23
2022-12-11T12:41:01.481Z,24.07
2022-12-11T12:44:00.609Z,16.67
2022-12-11T12:46:41.222Z,21.90
2022-12-11T12:49:17.583Z,22.83
2022-12-11T12:51:48.253Z,18.23
2022-12-11T12:54:21.140Z,19.30
2022-12-11T12:56:50.781Z,22.43
2022-12-11T12:59:24.755Z,19.40
2022-12-11T13:01:57.143Z,17.73
2022-12-11T13:04:55.707Z,18.43
2022-12-11T13:07:30.058Z,18.47
2022-12-11T13:10:06.679Z,17.97
2022-12-11T13:12:45.023Z,15.73
2022-12-11T13:15:33.625Z,13.87
2022-12-11T13:18:04.894Z,17.80
2022-12-11T13:20:35.851Z,18.10
2022-12-11T13:23:27.107Z,16.53
2022-12-11T13:25:58.262Z,18.80
2022-12-11T13:28:34.438Z,18.33
2022-12-11T13:31:24.554Z,16.43
2022-12-11T13:33:56.887Z,15.63
2022-12-11T13:36:32.662Z,12.00
2022-12-11T13:39:07.118Z,13.47
2022-12-11T13:41:38.498Z,12.93
2022-12-11T13:44:11.815Z,12.30
2022-12-11T13:46:41.040Z,13.60
2022-12-11T13:49:23.196Z,14.17
2022-12-11T13:52:01.391Z,14.27
2022-12-11T13:54:31.440Z,13.70
2022-12-11T13:57:03.611Z,11.50
2022-12-11T13:59:35.230Z,12.50
2022-12-11T14:02:16.609Z,12.50
2022-12-11T14:04:46.420Z,10.00
2022-12-11T14:07:25.267Z,10.90
2022-12-11T14:10:00.746Z,11.40
2022-12-11T14:12:31.769Z,10.47
2022-12-11T14:15:03.097Z,13.70
2022-12-11T14:17:34.999Z,12.80
2022-12-11T14:20:08.478Z,10.70
2022-12-11T14:22:39.422Z,11.07
2022-12-11T14:25:21.852Z,12.10
2022-12-11T14:27:51.679Z,11.50
2022-12-11T14:30:25.545Z,11.87
2022-12-11T14:32:57.490Z,11.33
2022-12-11T14:35:32.832Z,13.63
2022-12-11T14:38:12.479Z,16.37
2022-12-11T14:40:45.182Z,15.57
2022-12-11T14:43:20.549Z,15.67
2022-12-11T14:45:52.130Z,16.10
2022-12-11T14:48:23.956Z,14.27
2022-12-11T14:50:55.765Z,16.43
2022-12-11T14:53:30.022Z,17.90
2022-12-11T14:56:02.619Z,18.37
2022-12-11T14:58:32.283Z,19.67
2022-12-11T15:01:03.310Z,18.03
2022-12-11T15:03:34.447Z,19.67
2022-12-11T15:06:25.791Z,17.97
2022-12-11T15:08:56.592Z,19.07
2022-12-11T15:11:32.005Z,18.17
2022-12-11T15:14:04.237Z,17.57
2022-12-11T15:16:38.267Z,17.93
2022-12-11T15:19:07.369Z,18.67
2022-12-11T15:21:38.305Z,20.60
2022-12-11T15:24:26.188Z,22.63
2022-12-11T15:26:59.560Z,22.30
2022-12-11T15:29:34.349Z,20.13
2022-12-11T15:32:06.220Z,16.57
2022-12-11T15:34:36.271Z,19.80
2022-12-11T15:37:04.935Z,17.47
2022-12-11T15:39:35.101Z,17.97
2022-12-11T15:42:08.703Z,18.30
2022-12-11T15:44:37.614Z,18.10
2022-12-11T15:47:14.650Z,17.20
2022-12-11T15:49:43.692Z,17.40
2022-12-11T15:52:12.529Z,14.17
2022-12-11T15:54:43.330Z,15.70
2022-12-11T15:57:17.894Z,15.77
2022-12-11T15:59:49.295Z,15.83
2022-12-11T16:02:18.375Z,12.23
2022-12-11T16:04:47.427Z,13.60
2022-12-11T16:07:18.939Z,14.30
2022-12-11T16:09:49.638Z,14.60
2022-12-11T16:12:18.900Z,16.33
2022-12-11T16:14:48.082Z,13.17
2022-12-11T16:17:17.640Z,14.17
2022-12-11T16:19:46.641Z,13.07
2022-12-11T16:22:16.085Z,14.40
2022-12-11T16:24:44.987Z,13.43
2022-12-11T16:27:21.393Z,14.63
2022-12-11T16:29:52.403Z,16.43
2022-12-11T16:32:21.877Z,15.07
2022-12-11T16:34:51.745Z,14.90
2022-12-11T16:37:20.659Z,13.63
2022-12-11T16:39:50.305Z,14.40
2022-12-11T16:42:20.873Z,17.17
2022-12-11T16:44:49.947Z,19.00
2022-12-11T16:47:18.735Z,17.93
2022-12-11T16:49:47.315Z,18.73
2022-12-11T16:52:21.828Z,17.37
2022-12-11T16:54:51.964Z,15.10
2022-12-11T16:57:22.747Z,12.93
2022-12-11T16:59:55.638Z,13.87
2022-12-11T17:02:24.396Z,16.37
2022-12-11T17:04:54.190Z,13.80
2022-12-11T17:07:22.992Z,13.10
2022-12-11T17:09:52.074Z,13.90
2022-12-11T17:12:27.751Z,15.47
2022-12-11T17:14:56.715Z,11.33
2022-12-11T17:17:25.992Z,14.43
2022-12-11T17:19:54.764Z,12.47
2022-12-11T17:22:25.007Z,12.23
2022-12-11T17:24:53.622Z,12.83
2022-12-11T17:27:24.288Z,14.30
2022-12-11T17:29:54.042Z,15.57
2022-12-11T17:32:22.945Z,14.60
2022-12-11T17:34:52.033Z,14.03
2022-12-11T17:37:21.174Z,19.57
2022-12-11T17:39:50.212Z,13.73
2022-12-11T17:42:19.138Z,13.20
2022-12-11T17:44:49.486Z,13.97
2022-12-11T17:47:20.174Z,14.70
2022-12-11T17:49:49.051Z,14.27
2022-12-11T17:52:17.800Z,14.77
2022-12-11T17:54:46.772Z,14.87
2022-12-11T17:57:15.714Z,14.87
2022-12-11T17:59:44.511Z,16.10
2022-12-11T18:02:15.068Z,18.87
2022-12-11T18:04:43.820Z,17.70
2022-12-11T18:07:12.842Z,13.07
2022-12-11T18:09:41.946Z,16.33
2022-12-11T18:12:11.063Z,14.93
2022-12-11T18:14:39.676Z,17.83
2022-12-11T18:17:08.672Z,13.97
2022-12-11T18:19:44.430Z,18.17
2022-12-11T18:22:15.024Z,14.00
2022-12-11T18:24:44.629Z,14.43
2022-12-11T18:27:15.129Z,12.47
2022-12-11T18:29:44.159Z,13.93
2022-12-11T18:32:12.888Z,14.33
2022-12-11T18:34:43.021Z,14.03
2022-12-11T18:37:11.926Z,13.90
2022-12-11T18:39:40.753Z,17.63
2022-12-11T18:42:32.293Z,22.53
2022-12-11T18:44:58.404Z,19.33
2022-12-11T18:47:27.438Z,16.47
2022-12-11T18:50:00.117Z,20.40
2022-12-11T18:52:32.703Z,18.60
2022-12-11T18:55:01.881Z,18.90
2022-12-11T18:57:31.797Z,22.57
2022-12-11T19:00:04.704Z,22.43
2022-12-11T19:02:33.562Z,24.27
2022-12-11T19:05:04.120Z,22.40
2022-12-11T19:07:32.955Z,25.20
2022-12-11T19:10:01.957Z,23.50
2022-12-11T19:12:30.949Z,21.07
2022-12-11T19:14:59.738Z,18.03
2022-12-11T19:17:28.426Z,19.23
2022-12-11T19:19:57.423Z,16.53
2022-12-11T19:22:27.805Z,15.43
2022-12-11T19:24:56.469Z,14.23
2022-12-11T19:27:25.368Z,17.63
2022-12-11T19:29:54.511Z,12.53
2022-12-11T19:32:23.486Z,14.20
2022-12-11T19:34:54.753Z,14.90
2022-12-11T19:37:23.677Z,19.47
2022-12-11T19:39:54.295Z,22.67
2022-12-11T19:42:23.170Z,26.70
2022-12-11T19:44:52.166Z,27.97
2022-12-11T19:47:21.081Z,27.23
2022-12-11T19:49:51.033Z,29.13
2022-12-11T19:52:19.622Z,30.17
2022-12-11T19:54:48.448Z,25.87
2022-12-11T19:57:18.523Z,27.80
2022-12-11T19:59:51.382Z,29.30
2022-12-11T20:02:25.096Z,29.00
2022-12-11T20:04:54.097Z,28.33
2022-12-11T20:07:27.429Z,29.80
2022-12-11T20:10:00.385Z,24.23
2022-12-11T20:12:31.058Z,23.70
2022-12-11T20:14:59.966Z,21.43
2022-12-11T20:17:28.880Z,22.60
2022-12-11T20:19:58.595Z,18.30
2022-12-11T20:22:27.467Z,19.40
2022-12-11T20:24:56.575Z,20.67
2022-12-11T20:27:26.228Z,16.37
2022-12-11T20:29:56.765Z,19.23
2022-12-11T20:32:25.810Z,19.17
2022-12-11T20:34:57.140Z,18.77
2022-12-11T20:37:29.061Z,15.77
2022-12-11T20:39:57.714Z,15.00
2022-12-11T20:42:26.597Z,19.53
2022-12-11T20:44:56.943Z,18.33
2022-12-11T20:47:26.035Z,18.73
2022-12-11T20:49:55.185Z,17.53
2022-12-11T20:52:24.072Z,17.27
2022-12-11T20:54:53.803Z,18.67
2022-12-11T20:57:22.839Z,19.07
2022-12-11T20:59:51.726Z,21.30
2022-12-11T21:02:22.344Z,17.83
2022-12-11T21:04:51.005Z,17.97
2022-12-11T21:07:20.044Z,17.00
2022-12-11T21:09:48.645Z,20.13
2022-12-11T21:12:17.494Z,19.03
2022-12-11T21:14:46.226Z,20.00
2022-12-11T21:17:15.116Z,17.80
2022-12-11T21:19:45.370Z,17.47
2022-12-11T21:22:14.291Z,21.73
2022-12-11T21:24:43.154Z,19.97
2022-12-11T21:27:12.093Z,16.43
2022-12-11T21:29:40.754Z,19.60
2022-12-11T21:32:09.856Z,19.67
2022-12-11T21:34:38.921Z,17.73
2022-12-11T21:37:09.428Z,29.00
2022-12-11T21:39:39.559Z,29.93
2022-12-11T21:42:08.418Z,22.77
2022-12-11T21:47:27.698Z,26.00
2022-12-11T21:49:56.999Z,20.00
2022-12-11T21:52:27.495Z,27.53
2022-12-11T21:54:56.587Z,27.23
2022-12-11T21:57:26.840Z,27.33
2022-12-11T21:59:55.917Z,27.43
2022-12-11T22:02:24.529Z,24.17
2022-12-11T22:04:53.572Z,22.07
2022-12-11T22:07:23.721Z,18.60
2022-12-11T22:09:55.055Z,18.60
2022-12-11T22:12:26.368Z,22.03
2022-12-11T22:14:55.698Z,20.57
2022-12-11T22:17:25.075Z,21.13
2022-12-11T22:19:54.053Z,18.60
2022-12-11T22:22:22.857Z,23.53
2022-12-11T22:24:51.760Z,23.70
2022-12-11T22:27:23.838Z,21.33
2022-12-11T22:29:52.766Z,18.57
2022-12-11T22:32:21.341Z,19.73
2022-12-11T22:34:50.294Z,19.70
2022-12-11T22:37:19.068Z,18.73
2022-12-11T22:39:48.018Z,17.20
2022-12-11T22:42:16.990Z,19.40
2022-12-11T22:44:47.467Z,18.53
2022-12-11T22:47:17.824Z,19.40
2022-12-11T22:49:46.663Z,20.77
2022-12-11T22:52:15.710Z,18.77
2022-12-11T22:54:44.631Z,18.07
2022-12-11T22:57:14.285Z,18.03
2022-12-11T22:59:43.353Z,20.83
2022-12-11T23:02:13.582Z,15.90
2022-12-11T23:04:42.669Z,16.37
2022-12-11T23:07:11.916Z,16.67
2022-12-11T23:09:40.622Z,22.47
2022-12-11T23:12:09.927Z,20.13
2022-12-11T23:14:38.991Z,19.47
2022-12-11T23:17:07.744Z,20.60
2022-12-11T23:19:38.321Z,17.43
2022-12-11T23:22:08.019Z,20.10
2022-12-11T23:24:37.098Z,17.63
2022-12-11T23:27:06.022Z,18.30
2022-12-11T23:29:34.745Z,20.53
2022-12-11T23:32:04.701Z,18.87
2022-12-11T23:34:33.410Z,17.60
2022-12-11T23:37:03.681Z,17.63
2022-12-11T23:39:33.602Z,16.90
2022-12-11T23:42:02.455Z,18.33
2022-12-11T23:44:31.188Z,18.37
2022-12-11T23:46:59.993Z,20.73
2022-12-11T23:49:28.629Z,18.00
2022-12-11T23:51:57.581Z,18.40
2022-12-11T23:54:28.082Z,19.03
2022-12-11T23:56:57.139Z,20.00
2022-12-11T23:59:25.987Z,20.00
